createdAt,value
2018-11-04T00:00:57.570Z,-2.08
2018-11-04T00:03:26.313Z,-2.08
2018-11-04T00:05:54.761Z,-2.11
2018-11-04T00:08:23.201Z,-2.07
2018-11-04T00:10:51.637Z,-2.09
2018-11-04T00:13:20.425Z,-2.15
2018-11-04T00:15:48.776Z,-2.22
2018-11-04T00:18:17.184Z,-2.23
2018-11-04T00:20:45.629Z,-2.21
2018-11-04T00:23:14.043Z,-2.19
2018-11-04T00:25:42.491Z,-2.20
2018-11-04T00:28:10.913Z,-2.23
2018-11-04T00:30:39.351Z,-2.21
2018-11-04T00:33:07.780Z,-2.14
2018-11-04T00:35:36.246Z,-2.05
2018-11-04T00:38:04.687Z,-1.97
2018-11-04T00:40:33.104Z,-1.92
2018-11-04T00:43:01.537Z,-1.83
2018-11-04T00:45:30.093Z,-1.82
2018-11-04T00:47:58.435Z,-1.83
2018-11-04T00:50:26.860Z,-1.83
2018-11-04T00:52:55.312Z,-1.78
2018-11-04T00:55:23.731Z,-1.69
2018-11-04T00:57:52.173Z,-1.58
2018-11-04T01:00:20.676Z,-1.51
2018-11-04T01:02:50.272Z,-1.48
2018-11-04T01:05:19.041Z,-1.44
2018-11-04T01:07:47.477Z,-1.45
2018-11-04T01:10:15.937Z,-1.46
2018-11-04T01:12:44.874Z,-1.49
2018-11-04T01:15:14.169Z,-1.50
2018-11-04T01:17:43.337Z,-1.47
2018-11-04T01:20:13.724Z,-1.48
2018-11-04T01:22:42.354Z,-1.51
2018-11-04T01:25:10.830Z,-1.51
2018-11-04T01:27:39.364Z,-1.55
2018-11-04T01:30:10.823Z,-1.57
2018-11-04T01:32:39.351Z,-1.59
2018-11-04T01:35:08.108Z,-1.60
2018-11-04T01:37:36.572Z,-1.62
2018-11-04T01:40:06.085Z,-1.59
2018-11-04T01:42:34.539Z,-1.59
2018-11-04T01:45:02.975Z,-1.57
2018-11-04T01:47:31.405Z,-1.58
2018-11-04T01:49:59.821Z,-1.59
2018-11-04T01:52:28.264Z,-1.61
2018-11-04T01:54:56.692Z,-1.59
2018-11-04T01:57:25.141Z,-1.61
2018-11-04T01:59:53.569Z,-1.64
2018-11-04T02:02:23.084Z,-1.68
2018-11-04T02:04:51.488Z,-1.74
2018-11-04T02:07:19.945Z,-1.80
2018-11-04T02:09:48.349Z,-1.84
2018-11-04T02:12:16.779Z,-1.84
2018-11-04T02:14:45.215Z,-1.77
2018-11-04T02:17:13.646Z,-1.71
2018-11-04T02:19:42.090Z,-1.69
2018-11-04T02:22:10.505Z,-1.66
2018-11-04T02:24:38.956Z,-1.67
2018-11-04T02:27:07.383Z,-1.67
2018-11-04T02:29:35.825Z,-1.69
2018-11-04T02:32:04.255Z,-1.64
2018-11-04T02:34:32.691Z,-1.60
2018-11-04T02:37:01.114Z,-1.52
2018-11-04T02:39:29.568Z,-1.39
2018-11-04T02:41:57.978Z,-1.25
2018-11-04T02:44:26.402Z,-1.13
2018-11-04T02:46:54.850Z,-0.98
2018-11-04T02:49:23.275Z,-0.93
2018-11-04T02:51:51.688Z,-0.93
2018-11-04T02:54:20.158Z,-0.90
2018-11-04T02:56:48.594Z,-0.86
2018-11-04T02:59:17.064Z,-0.85
2018-11-04T03:01:45.520Z,-0.80
2018-11-04T03:04:14.302Z,-0.74
2018-11-04T03:06:42.705Z,-0.68
2018-11-04T03:09:11.688Z,-0.63
2018-11-04T03:11:40.127Z,-0.55
2018-11-04T03:14:08.610Z,-0.47
2018-11-04T03:16:37.013Z,-0.43
2018-11-04T03:19:05.602Z,-0.35
2018-11-04T03:21:34.038Z,-0.28
2018-11-04T03:24:02.481Z,-0.20
2018-11-04T03:26:30.951Z,-0.14
2018-11-04T03:29:00.213Z,-0.04
2018-11-04T03:31:28.627Z,0.02
2018-11-04T03:33:57.090Z,0.08
2018-11-04T03:36:25.509Z,0.08
2018-11-04T03:38:53.933Z,0.08
2018-11-04T03:41:22.368Z,0.15
2018-11-04T03:43:50.825Z,0.20
2018-11-04T03:46:19.240Z,0.29
2018-11-04T03:48:47.705Z,0.29
2018-11-04T03:51:16.130Z,0.28
2018-11-04T03:53:44.567Z,0.27
2018-11-04T03:56:12.981Z,0.31
2018-11-04T03:58:41.414Z,0.36
2018-11-04T04:01:09.852Z,0.39
2018-11-04T04:03:38.300Z,0.43
2018-11-04T04:06:06.775Z,0.45
2018-11-04T04:08:35.229Z,0.40
2018-11-04T04:11:03.653Z,0.36
2018-11-04T04:13:32.161Z,0.33
2018-11-04T04:16:00.556Z,0.31
2018-11-04T04:18:28.994Z,0.33
2018-11-04T04:21:03.304Z,0.32
2018-11-04T04:23:31.774Z,0.35
2018-11-04T04:26:00.178Z,0.40
2018-11-04T04:28:28.625Z,0.81
2018-11-04T04:30:57.073Z,1.01
2018-11-04T04:33:25.622Z,1.16
2018-11-04T04:35:54.046Z,1.30
2018-11-04T04:38:22.568Z,1.47
2018-11-04T04:40:50.987Z,1.54
2018-11-04T04:43:19.481Z,1.43
2018-11-04T04:45:47.899Z,1.20
2018-11-04T04:48:16.364Z,1.00
2018-11-04T04:50:44.780Z,0.85
2018-11-04T04:53:13.192Z,0.90
2018-11-04T04:55:41.676Z,0.98
2018-11-04T04:58:10.088Z,1.02
2018-11-04T05:00:38.542Z,1.06
2018-11-04T05:03:06.956Z,1.01
2018-11-04T05:05:35.402Z,1.04
2018-11-04T05:08:03.819Z,1.01
2018-11-04T05:10:32.239Z,1.16
2018-11-04T05:13:00.657Z,1.50
2018-11-04T05:15:29.108Z,1.79
2018-11-04T05:17:57.557Z,2.07
2018-11-04T05:20:25.996Z,2.30
2018-11-04T05:22:54.406Z,2.48
2018-11-04T05:25:22.845Z,2.59
2018-11-04T05:27:51.257Z,2.67
2018-11-04T05:30:19.709Z,2.72
2018-11-04T05:32:48.139Z,2.74
2018-11-04T05:35:16.587Z,2.82
2018-11-04T05:37:45.013Z,2.87
2018-11-04T05:40:13.457Z,2.86
2018-11-04T05:42:41.884Z,2.82
2018-11-04T05:45:10.372Z,2.75
2018-11-04T05:47:38.816Z,2.71
2018-11-04T05:50:07.496Z,2.82
2018-11-04T05:52:36.423Z,2.89
2018-11-04T05:55:05.493Z,3.00
2018-11-04T05:57:34.062Z,3.07
2018-11-04T06:00:02.508Z,3.18
2018-11-04T06:02:30.985Z,3.32
2018-11-04T06:04:59.420Z,3.39
2018-11-04T06:07:27.853Z,3.43
2018-11-04T06:09:56.260Z,3.44
2018-11-04T06:12:24.722Z,3.46
2018-11-04T06:14:53.417Z,3.48
2018-11-04T06:17:21.876Z,3.51
2018-11-04T06:19:50.298Z,3.60
2018-11-04T06:22:18.745Z,3.62
2018-11-04T06:24:47.143Z,3.69
2018-11-04T06:27:15.629Z,3.77
2018-11-04T06:29:44.052Z,3.83
2018-11-04T06:32:12.617Z,3.86
2018-11-04T06:34:41.067Z,3.88
2018-11-04T06:37:09.483Z,3.90
2018-11-04T06:39:37.890Z,3.93
2018-11-04T06:42:06.356Z,4.04
2018-11-04T06:44:34.773Z,4.07
2018-11-04T06:47:05.244Z,4.13
2018-11-04T06:49:33.588Z,4.20
2018-11-04T06:52:02.054Z,4.27
2018-11-04T06:54:30.477Z,4.27
2018-11-04T06:56:58.908Z,4.34
2018-11-04T06:59:27.425Z,4.37
2018-11-04T07:01:55.897Z,4.42
2018-11-04T07:04:25.866Z,4.45
2018-11-04T07:06:54.286Z,4.49
2018-11-04T07:09:22.729Z,4.52
2018-11-04T07:11:51.260Z,4.55
2018-11-04T07:14:20.536Z,4.62
2018-11-04T07:16:49.033Z,4.67
2018-11-04T07:19:17.749Z,4.70
2018-11-04T07:21:46.216Z,4.72
2018-11-04T07:24:14.943Z,4.75
2018-11-04T07:26:43.460Z,4.76
2018-11-04T07:29:11.911Z,4.78
2018-11-04T07:31:40.319Z,4.79
2018-11-04T07:34:09.025Z,4.81
2018-11-04T07:36:37.510Z,4.85
2018-11-04T07:39:09.298Z,4.93
2018-11-04T07:41:37.727Z,4.99
2018-11-04T07:44:06.338Z,5.04
2018-11-04T07:46:34.722Z,5.10
2018-11-04T07:49:03.168Z,5.18
2018-11-04T07:51:31.639Z,5.25
2018-11-04T07:54:00.060Z,5.29
2018-11-04T07:56:28.484Z,5.32
2018-11-04T07:58:59.489Z,5.35
2018-11-04T08:01:27.966Z,5.32
2018-11-04T08:03:56.495Z,5.41
2018-11-04T08:06:24.924Z,5.48
2018-11-04T08:08:53.407Z,5.53
2018-11-04T08:11:21.826Z,5.60
2018-11-04T08:13:50.252Z,5.60
2018-11-04T08:16:18.709Z,5.68
2018-11-04T08:18:47.248Z,5.69
2018-11-04T08:21:15.783Z,5.71
2018-11-04T08:23:44.216Z,5.77
2018-11-04T08:26:12.616Z,5.83
2018-11-04T08:28:41.046Z,5.87
2018-11-04T08:31:09.444Z,5.90
2018-11-04T08:33:37.900Z,5.95
2018-11-04T08:36:06.359Z,5.96
2018-11-04T08:38:34.809Z,6.09
2018-11-04T08:41:03.248Z,6.13
2018-11-04T08:43:31.676Z,6.18
2018-11-04T08:46:00.079Z,6.21
2018-11-04T08:48:28.512Z,6.25
2018-11-04T08:50:56.913Z,6.26
2018-11-04T08:53:25.349Z,6.34
2018-11-04T08:55:53.788Z,6.37
2018-11-04T08:58:22.223Z,6.41
2018-11-04T09:00:50.702Z,6.50
2018-11-04T09:03:19.115Z,6.57
2018-11-04T09:05:47.609Z,6.63
2018-11-04T09:08:16.025Z,6.69
2018-11-04T09:10:44.452Z,6.76
2018-11-04T09:13:12.882Z,6.82
2018-11-04T09:15:41.323Z,6.84
2018-11-04T09:18:09.744Z,6.88
2018-11-04T09:20:38.207Z,6.94
2018-11-04T09:23:06.608Z,6.99
2018-11-04T09:25:35.156Z,7.04
2018-11-04T09:28:03.582Z,7.11
2018-11-04T09:30:32.069Z,7.13
2018-11-04T09:33:00.528Z,7.16
2018-11-04T09:35:30.494Z,7.23
2018-11-04T09:37:58.840Z,7.30
2018-11-04T09:40:27.295Z,7.34
2018-11-04T09:42:55.737Z,7.40
2018-11-04T09:45:24.201Z,7.42
2018-11-04T09:47:52.604Z,7.45
2018-11-04T09:50:21.118Z,7.51
2018-11-04T09:52:49.540Z,7.54
2018-11-04T09:55:18.011Z,7.65
2018-11-04T09:57:46.415Z,7.71
2018-11-04T10:00:15.846Z,7.79
2018-11-04T10:02:45.910Z,7.84
2018-11-04T10:05:14.459Z,7.83
2018-11-04T10:07:42.863Z,7.80
2018-11-04T10:10:12.856Z,7.78
2018-11-04T10:12:42.484Z,7.79
2018-11-04T10:15:11.223Z,7.83
2018-11-04T10:17:40.312Z,7.83
2018-11-04T10:20:10.740Z,7.88
2018-11-04T10:22:39.230Z,7.93
2018-11-04T10:25:08.600Z,7.94
2018-11-04T10:27:37.371Z,7.97
2018-11-04T10:30:07.934Z,8.04
2018-11-04T10:32:36.364Z,8.06
2018-11-04T10:35:05.484Z,8.04
2018-11-04T10:37:33.978Z,8.06
2018-11-04T10:40:02.434Z,8.10
2018-11-04T10:42:30.874Z,8.12
2018-11-04T10:44:59.324Z,8.13
2018-11-04T10:47:27.779Z,8.13
2018-11-04T10:49:56.302Z,8.14
2018-11-04T10:52:24.749Z,8.19
2018-11-04T10:54:53.272Z,8.26
2018-11-04T10:57:21.678Z,8.30
2018-11-04T10:59:50.686Z,8.28
2018-11-04T11:02:19.180Z,8.28
2018-11-04T11:04:47.628Z,8.31
2018-11-04T11:07:16.069Z,8.39
2018-11-04T11:09:44.502Z,8.39
2018-11-04T11:12:12.934Z,8.37
2018-11-04T11:14:41.401Z,8.37
2018-11-04T11:17:09.820Z,8.39
2018-11-04T11:19:38.262Z,8.43
2018-11-04T11:22:06.719Z,8.49
2018-11-04T11:24:35.165Z,8.48
2018-11-04T11:27:03.631Z,8.51
2018-11-04T11:29:32.060Z,8.51
2018-11-04T11:32:00.531Z,8.53
2018-11-04T11:34:28.956Z,8.56
2018-11-04T11:36:57.420Z,8.62
2018-11-04T11:39:25.849Z,8.68
2018-11-04T11:41:54.297Z,8.78
2018-11-04T11:44:22.720Z,8.91
2018-11-04T11:46:51.189Z,9.03
2018-11-04T11:49:19.648Z,9.13
2018-11-04T11:51:48.080Z,9.22
2018-11-04T11:54:16.503Z,9.33
2018-11-04T11:56:44.955Z,9.35
2018-11-04T11:59:13.409Z,9.37
2018-11-04T12:01:41.858Z,9.40
2018-11-04T12:04:10.383Z,9.42
2018-11-04T12:06:39.085Z,9.49
2018-11-04T12:09:07.994Z,9.55
2018-11-04T12:11:36.450Z,9.61
2018-11-04T12:14:04.938Z,9.63
2018-11-04T12:16:33.381Z,9.66
2018-11-04T12:19:01.822Z,9.65
2018-11-04T12:21:30.281Z,9.60
2018-11-04T12:23:58.710Z,9.59
2018-11-04T12:26:27.182Z,9.58
2018-11-04T12:28:55.604Z,9.57
2018-11-04T12:31:24.060Z,9.60
2018-11-04T12:33:52.496Z,9.60
2018-11-04T12:36:20.964Z,9.56
2018-11-04T12:38:49.398Z,9.53
2018-11-04T12:41:17.874Z,9.52
2018-11-04T12:43:46.288Z,9.56
2018-11-04T12:46:14.742Z,9.55
2018-11-04T12:48:43.171Z,9.58
2018-11-04T12:51:11.620Z,9.57
2018-11-04T12:53:40.048Z,9.58
2018-11-04T12:56:08.509Z,9.59
2018-11-04T12:58:36.937Z,9.59
2018-11-04T13:01:05.733Z,9.60
2018-11-04T13:03:34.146Z,9.58
2018-11-04T13:06:02.607Z,9.59
2018-11-04T13:08:31.082Z,9.61
2018-11-04T13:10:59.538Z,9.60
2018-11-04T13:13:27.992Z,9.60
2018-11-04T13:15:56.434Z,9.59
2018-11-04T13:18:24.910Z,9.60
2018-11-04T13:20:53.369Z,9.62
2018-11-04T13:23:21.810Z,9.63
2018-11-04T13:25:50.245Z,9.63
2018-11-04T13:28:18.712Z,9.63
2018-11-04T13:30:47.136Z,9.65
2018-11-04T13:33:15.582Z,9.66
2018-11-04T13:35:44.028Z,9.68
2018-11-04T13:38:12.509Z,9.64
2018-11-04T13:40:40.936Z,9.61
2018-11-04T13:43:09.452Z,9.59
2018-11-04T13:45:37.871Z,9.57
2018-11-04T13:48:06.696Z,9.55
2018-11-04T13:50:35.134Z,9.52
2018-11-04T13:53:03.592Z,9.51
2018-11-04T13:55:32.008Z,9.48
2018-11-04T13:58:00.516Z,9.45
2018-11-04T14:00:28.978Z,9.44
2018-11-04T14:02:57.523Z,9.40
2018-11-04T14:05:25.932Z,9.39
2018-11-04T14:07:54.412Z,9.37
2018-11-04T14:10:22.846Z,9.34
2018-11-04T14:12:51.348Z,9.33
2018-11-04T14:15:19.752Z,9.34
2018-11-04T14:17:48.188Z,9.33
2018-11-04T14:20:16.637Z,9.34
2018-11-04T14:22:45.089Z,9.34
2018-11-04T14:25:13.571Z,9.32
2018-11-04T14:27:42.076Z,9.32
2018-11-04T14:30:12.713Z,9.31
2018-11-04T14:32:41.291Z,9.29
2018-11-04T14:35:10.636Z,9.30
2018-11-04T14:37:40.090Z,9.28
2018-11-04T14:40:10.410Z,9.25
2018-11-04T14:42:39.551Z,9.24
2018-11-04T14:45:08.329Z,9.21
2018-11-04T14:47:37.170Z,9.17
2018-11-04T14:50:09.217Z,9.17
2018-11-04T14:52:37.874Z,9.16
2018-11-04T14:55:06.708Z,9.16
2018-11-04T14:57:35.422Z,9.14
2018-11-04T15:00:04.149Z,9.11
2018-11-04T15:02:32.595Z,9.09
2018-11-04T15:05:01.358Z,9.06
2018-11-04T15:07:29.906Z,9.05
2018-11-04T15:09:58.249Z,9.04
2018-11-04T15:12:26.672Z,9.03
2018-11-04T15:14:55.122Z,9.01
2018-11-04T15:17:23.537Z,8.98
2018-11-04T15:19:52.000Z,9.00
2018-11-04T15:22:20.437Z,9.00
2018-11-04T15:24:48.968Z,9.02
2018-11-04T15:27:17.357Z,9.03
2018-11-04T15:29:45.813Z,9.02
2018-11-04T15:32:14.233Z,8.98
2018-11-04T15:34:42.884Z,8.96
2018-11-04T15:37:11.127Z,8.92
2018-11-04T15:39:39.605Z,8.94
2018-11-04T15:42:08.046Z,8.91
2018-11-04T15:44:36.514Z,8.94
2018-11-04T15:47:05.340Z,8.95
2018-11-04T15:49:33.795Z,8.93
2018-11-04T15:52:02.242Z,8.92
2018-11-04T15:54:30.689Z,8.92
2018-11-04T15:57:06.120Z,8.91
2018-11-04T15:59:34.516Z,8.91
2018-11-04T16:02:02.962Z,8.90
2018-11-04T16:04:31.416Z,8.89
2018-11-04T16:06:59.852Z,8.90
2018-11-04T16:09:28.300Z,8.89
2018-11-04T16:11:56.729Z,8.90
2018-11-04T16:14:25.161Z,8.91
2018-11-04T16:16:53.585Z,8.94
2018-11-04T16:19:22.060Z,8.96
2018-11-04T16:21:50.473Z,8.94
2018-11-04T16:24:18.919Z,8.92
2018-11-04T16:26:47.340Z,8.92
2018-11-04T16:29:15.776Z,8.93
2018-11-04T16:31:44.235Z,8.93
2018-11-04T16:34:12.838Z,8.94
2018-11-04T16:36:41.253Z,8.91
2018-11-04T16:39:10.144Z,8.88
2018-11-04T16:41:38.578Z,8.91
2018-11-04T16:44:07.799Z,8.88
2018-11-04T16:46:36.427Z,8.88
2018-11-04T16:49:05.449Z,8.89
2018-11-04T16:51:33.869Z,8.91
2018-11-04T16:54:02.344Z,8.90
2018-11-04T16:56:30.765Z,8.92
2018-11-04T16:58:59.210Z,8.93
2018-11-04T17:01:27.672Z,8.94
2018-11-04T17:03:56.150Z,8.96
2018-11-04T17:06:24.660Z,8.94
2018-11-04T17:08:53.429Z,8.94
2018-11-04T17:11:21.969Z,8.97
2018-11-04T17:13:50.439Z,8.98
2018-11-04T17:16:18.916Z,8.94
2018-11-04T17:18:47.331Z,8.92
2018-11-04T17:21:15.772Z,8.92
2018-11-04T17:23:44.184Z,8.92
2018-11-04T17:26:12.641Z,8.94
2018-11-04T17:28:41.080Z,8.96
2018-11-04T17:31:09.540Z,8.94
2018-11-04T17:33:37.976Z,8.92
2018-11-04T17:36:06.566Z,8.94
2018-11-04T17:38:34.917Z,8.92
2018-11-04T17:41:03.365Z,8.90
2018-11-04T17:43:31.797Z,8.90
2018-11-04T17:46:00.241Z,8.88
2018-11-04T17:48:28.672Z,8.87
2018-11-04T17:50:57.120Z,8.87
2018-11-04T17:53:25.537Z,8.87
2018-11-04T17:55:53.986Z,8.86
2018-11-04T17:58:22.396Z,8.86
2018-11-04T18:00:50.864Z,8.86
2018-11-04T18:03:19.293Z,8.86
2018-11-04T18:05:47.736Z,8.86
2018-11-04T18:08:16.203Z,8.85
2018-11-04T18:10:44.646Z,8.86
2018-11-04T18:13:13.095Z,8.83
2018-11-04T18:15:41.574Z,8.81
2018-11-04T18:18:10.422Z,8.80
2018-11-04T18:20:38.887Z,8.79
2018-11-04T18:23:07.287Z,8.79
2018-11-04T18:25:35.734Z,8.79
2018-11-04T18:28:04.165Z,8.81
2018-11-04T18:30:32.594Z,8.82
2018-11-04T18:33:01.026Z,8.83
2018-11-04T18:35:29.462Z,8.82
2018-11-04T18:37:57.868Z,8.81
2018-11-04T18:40:26.317Z,8.79
2018-11-04T18:42:54.726Z,8.77
2018-11-04T18:45:23.159Z,8.76
2018-11-04T18:47:51.556Z,8.78
2018-11-04T18:50:20.086Z,8.78
2018-11-04T18:52:48.748Z,8.76
2018-11-04T18:55:17.010Z,8.76
2018-11-04T18:57:45.471Z,8.75
2018-11-04T19:00:15.295Z,8.74
2018-11-04T19:02:43.989Z,8.74
2018-11-04T19:05:12.494Z,8.73
2018-11-04T19:07:40.881Z,8.74
2018-11-04T19:10:12.281Z,8.74
2018-11-04T19:12:40.768Z,8.74
2018-11-04T19:15:09.404Z,8.73
2018-11-04T19:17:38.081Z,8.74
2018-11-04T19:20:08.397Z,8.72
2018-11-04T19:22:37.156Z,8.72
2018-11-04T19:25:06.190Z,8.71
2018-11-04T19:27:34.633Z,8.69
2018-11-04T19:30:03.060Z,8.68
2018-11-04T19:32:31.497Z,8.71
2018-11-04T19:34:59.936Z,8.71
2018-11-04T19:37:28.454Z,8.71
2018-11-04T19:39:56.812Z,8.69
2018-11-04T19:42:25.268Z,8.69
2018-11-04T19:44:53.690Z,8.71
2018-11-04T19:47:22.153Z,8.72
2018-11-04T19:49:50.568Z,8.71
2018-11-04T19:52:19.021Z,8.72
2018-11-04T19:54:47.417Z,8.74
2018-11-04T19:57:15.873Z,8.75
2018-11-04T19:59:44.297Z,8.75
2018-11-04T20:02:12.764Z,8.75
2018-11-04T20:04:41.207Z,8.75
2018-11-04T20:07:09.664Z,8.75
2018-11-04T20:09:38.093Z,8.75
2018-11-04T20:12:10.714Z,8.76
2018-11-04T20:14:39.155Z,8.74
2018-11-04T20:17:07.597Z,8.73
2018-11-04T20:19:41.337Z,8.72
2018-11-04T20:22:09.639Z,8.71
2018-11-04T20:24:43.358Z,8.71
2018-11-04T20:27:11.796Z,8.72
2018-11-04T20:29:40.209Z,8.72
2018-11-04T20:32:13.856Z,8.74
2018-11-04T20:34:42.277Z,8.74
2018-11-04T20:37:10.737Z,8.71
2018-11-04T20:39:44.589Z,8.70
2018-11-04T20:42:13.032Z,8.68
2018-11-04T20:44:47.568Z,8.68
2018-11-04T20:47:16.332Z,8.68
2018-11-04T20:49:50.068Z,8.67
2018-11-04T20:52:18.958Z,8.66
2018-11-04T20:54:47.469Z,8.65
2018-11-04T20:57:21.112Z,8.63
2018-11-04T20:59:49.534Z,8.61
2018-11-04T21:02:18.237Z,8.59
2018-11-04T21:04:46.459Z,8.59
2018-11-04T21:07:14.905Z,8.60
2018-11-04T21:09:43.367Z,8.59
2018-11-04T21:12:11.793Z,8.56
2018-11-04T21:14:40.215Z,8.54
2018-11-04T21:17:08.647Z,8.51
2018-11-04T21:19:37.106Z,8.48
2018-11-04T21:22:08.928Z,8.45
2018-11-04T21:24:37.363Z,8.44
2018-11-04T21:27:06.374Z,8.42
2018-11-04T21:29:35.151Z,8.42
2018-11-04T21:32:03.649Z,8.41
2018-11-04T21:34:32.058Z,8.40
2018-11-04T21:37:00.513Z,8.41
2018-11-04T21:39:28.926Z,8.41
2018-11-04T21:41:57.351Z,8.40
2018-11-04T21:44:25.964Z,8.40
2018-11-04T21:46:54.250Z,8.40
2018-11-04T21:49:22.751Z,8.40
2018-11-04T21:51:51.144Z,8.40
2018-11-04T21:54:19.585Z,8.38
2018-11-04T21:56:48.008Z,8.39
2018-11-04T21:59:16.445Z,8.38
2018-11-04T22:01:44.915Z,8.40
2018-11-04T22:04:13.428Z,8.39
2018-11-04T22:06:41.820Z,8.40
2018-11-04T22:09:10.769Z,8.41
2018-11-04T22:11:39.295Z,8.41
2018-11-04T22:14:07.760Z,8.41
2018-11-04T22:16:36.179Z,8.43
2018-11-04T22:19:04.638Z,8.44
2018-11-04T22:21:33.061Z,8.44
2018-11-04T22:24:01.517Z,8.47
2018-11-04T22:26:29.971Z,8.46
2018-11-04T22:28:58.418Z,8.47
2018-11-04T22:31:26.956Z,8.47
2018-11-04T22:33:55.439Z,8.47
2018-11-04T22:36:23.891Z,8.45
2018-11-04T22:38:52.357Z,8.47
2018-11-04T22:41:21.046Z,8.47
2018-11-04T22:43:49.496Z,8.47
2018-11-04T22:46:17.937Z,8.45
2018-11-04T22:48:46.382Z,8.44
2018-11-04T22:51:14.786Z,8.41
2018-11-04T22:53:43.244Z,8.39
2018-11-04T22:56:11.781Z,8.38
2018-11-04T22:58:40.124Z,8.38
2018-11-04T23:01:08.583Z,8.38
2018-11-04T23:03:37.053Z,8.37
2018-11-04T23:06:12.049Z,8.36
2018-11-04T23:08:40.486Z,8.35
2018-11-04T23:11:08.893Z,8.34
2018-11-04T23:13:37.339Z,8.35
2018-11-04T23:16:05.812Z,8.34
2018-11-04T23:18:34.268Z,8.34
2018-11-04T23:21:02.699Z,8.33
2018-11-04T23:23:31.155Z,8.33
2018-11-04T23:25:59.574Z,8.33
2018-11-04T23:28:28.033Z,8.34
2018-11-04T23:30:56.446Z,8.35
2018-11-04T23:33:24.885Z,8.36
2018-11-04T23:35:53.313Z,8.37
2018-11-04T23:38:21.768Z,8.37
2018-11-04T23:40:50.199Z,8.37
2018-11-04T23:43:18.657Z,8.40
2018-11-04T23:45:47.120Z,8.44
2018-11-04T23:48:15.550Z,8.44
2018-11-04T23:50:44.002Z,8.47
2018-11-04T23:53:12.409Z,8.45
2018-11-04T23:55:40.846Z,8.49
2018-11-04T23:58:10.915Z,8.50
